sensor_id;sensor_type;location;lat;lon;timestamp;temperature;humidity
2106;DHT22;1059;52.548;13.408;2023-02-08T00:00:50;0.70;99.90
2106;DHT22;1059;52.548;13.408;2023-02-08T00:03:18;0.70;99.90
2106;DHT22;1059;52.548;13.408;2023-02-08T00:05:45;0.70;99.90
2106;DHT22;1059;52.548;13.408;2023-02-08T00:08:12;0.70;99.90
2106;DHT22;1059;52.548;13.408;2023-02-08T00:10:39;0.70;99.90
2106;DHT22;1059;52.548;13.408;2023-02-08T00:13:06;0.70;99.90
2106;DHT22;1059;52.548;13.408;2023-02-08T00:15:33;0.70;99.90
2106;DHT22;1059;52.548;13.408;2023-02-08T00:18:00;0.60;99.90
2106;DHT22;1059;52.548;13.408;2023-02-08T00:20:28;0.60;99.90
2106;DHT22;1059;52.548;13.408;2023-02-08T00:22:55;0.60;99.90
2106;DHT22;1059;52.548;13.408;2023-02-08T00:25:22;0.60;99.90
2106;DHT22;1059;52.548;13.408;2023-02-08T00:27:49;0.60;99.90
2106;DHT22;1059;52.548;13.408;2023-02-08T00:30:16;0.60;99.90
2106;DHT22;1059;52.548;13.408;2023-02-08T00:32:43;0.50;99.90
2106;DHT22;1059;52.548;13.408;2023-02-08T00:35:10;0.50;99.90
2106;DHT22;1059;52.548;13.408;2023-02-08T00:37:38;0.50;99.90
2106;DHT22;1059;52.548;13.408;2023-02-08T00:40:06;0.50;99.90
2106;DHT22;1059;52.548;13.408;2023-02-08T00:42:33;0.40;99.90
2106;DHT22;1059;52.548;13.408;2023-02-08T00:45:00;0.40;99.90
2106;DHT22;1059;52.548;13.408;2023-02-08T00:47:27;0.40;99.90
2106;DHT22;1059;52.548;13.408;2023-02-08T00:49:54;0.30;99.90
2106;DHT22;1059;52.548;13.408;2023-02-08T00:52:21;0.30;99.90
2106;DHT22;1059;52.548;13.408;2023-02-08T00:54:49;0.30;99.90
2106;DHT22;1059;52.548;13.408;2023-02-08T00:57:16;0.20;99.90
2106;DHT22;1059;52.548;13.408;2023-02-08T00:59:43;0.20;99.90
2106;DHT22;1059;52.548;13.408;2023-02-08T01:02:10;0.20;99.90
2106;DHT22;1059;52.548;13.408;2023-02-08T01:04:37;0.20;99.90
2106;DHT22;1059;52.548;13.408;2023-02-08T01:07:05;0.10;99.90
2106;DHT22;1059;52.548;13.408;2023-02-08T01:09:33;0.10;99.90
2106;DHT22;1059;52.548;13.408;2023-02-08T01:12:02;0.10;99.90
2106;DHT22;1059;52.548;13.408;2023-02-08T01:14:29;0.10;99.90
2106;DHT22;1059;52.548;13.408;2023-02-08T01:16:56;0.10;99.90
2106;DHT22;1059;52.548;13.408;2023-02-08T01:19:23;0.10;99.90
2106;DHT22;1059;52.548;13.408;2023-02-08T01:21:49;0.10;99.90
2106;DHT22;1059;52.548;13.408;2023-02-08T01:24:16;0.10;99.90
2106;DHT22;1059;52.548;13.408;2023-02-08T01:26:43;0.10;99.90
2106;DHT22;1059;52.548;13.408;2023-02-08T01:29:12;0.10;99.90
2106;DHT22;1059;52.548;13.408;2023-02-08T01:31:40;0.10;99.90
2106;DHT22;1059;52.548;13.408;2023-02-08T01:34:08;0.00;99.90
2106;DHT22;1059;52.548;13.408;2023-02-08T01:36:36;0.00;99.90
2106;DHT22;1059;52.548;13.408;2023-02-08T01:39:05;0.00;99.90
2106;DHT22;1059;52.548;13.408;2023-02-08T01:41:34;0.00;99.90
2106;DHT22;1059;52.548;13.408;2023-02-08T01:44:07;-0.10;99.90
2106;DHT22;1059;52.548;13.408;2023-02-08T01:46:37;-0.10;99.90
2106;DHT22;1059;52.548;13.408;2023-02-08T01:49:07;0.00;99.90
2106;DHT22;1059;52.548;13.408;2023-02-08T01:51:40;-0.10;99.90
2106;DHT22;1059;52.548;13.408;2023-02-08T01:54:10;-0.10;99.90
2106;DHT22;1059;52.548;13.408;2023-02-08T01:56:41;-0.10;99.90
2106;DHT22;1059;52.548;13.408;2023-02-08T01:59:12;-0.10;99.90
2106;DHT22;1059;52.548;13.408;2023-02-08T02:01:44;-0.10;99.90
2106;DHT22;1059;52.548;13.408;2023-02-08T02:04:12;-0.10;99.90
2106;DHT22;1059;52.548;13.408;2023-02-08T02:06:41;-0.10;99.90
2106;DHT22;1059;52.548;13.408;2023-02-08T02:09:13;-0.10;99.90
2106;DHT22;1059;52.548;13.408;2023-02-08T02:11:42;-0.10;99.90
2106;DHT22;1059;52.548;13.408;2023-02-08T02:14:10;-0.10;99.90
2106;DHT22;1059;52.548;13.408;2023-02-08T02:16:37;-0.20;99.90
2106;DHT22;1059;52.548;13.408;2023-02-08T02:19:07;-0.10;99.90
2106;DHT22;1059;52.548;13.408;2023-02-08T02:21:52;-0.10;99.90
2106;DHT22;1059;52.548;13.408;2023-02-08T02:27:24;-0.20;99.90
2106;DHT22;1059;52.548;13.408;2023-02-08T02:30:31;-0.20;99.90
2106;DHT22;1059;52.548;13.408;2023-02-08T02:33:27;-0.20;99.90
2106;DHT22;1059;52.548;13.408;2023-02-08T02:36:00;-0.20;99.90
2106;DHT22;1059;52.548;13.408;2023-02-08T02:38:36;-0.30;99.90
2106;DHT22;1059;52.548;13.408;2023-02-08T02:41:09;-0.30;99.90
2106;DHT22;1059;52.548;13.408;2023-02-08T02:43:44;-0.30;99.90
2106;DHT22;1059;52.548;13.408;2023-02-08T02:46:21;-0.30;99.90
2106;DHT22;1059;52.548;13.408;2023-02-08T02:48:55;-0.40;99.90
2106;DHT22;1059;52.548;13.408;2023-02-08T02:51:27;-0.40;99.90
2106;DHT22;1059;52.548;13.408;2023-02-08T02:54:00;-0.50;99.90
2106;DHT22;1059;52.548;13.408;2023-02-08T02:56:33;-0.50;99.90
2106;DHT22;1059;52.548;13.408;2023-02-08T02:59:04;-0.50;99.90
2106;DHT22;1059;52.548;13.408;2023-02-08T03:01:32;-0.60;99.90
2106;DHT22;1059;52.548;13.408;2023-02-08T03:04:10;-0.60;99.90
2106;DHT22;1059;52.548;13.408;2023-02-08T03:06:49;-0.60;99.90
2106;DHT22;1059;52.548;13.408;2023-02-08T03:12:29;-0.70;99.90
2106;DHT22;1059;52.548;13.408;2023-02-08T03:15:05;-0.80;99.90
2106;DHT22;1059;52.548;13.408;2023-02-08T03:17:49;-0.90;99.90
2106;DHT22;1059;52.548;13.408;2023-02-08T03:20:22;-0.90;99.90
2106;DHT22;1059;52.548;13.408;2023-02-08T03:22:57;-0.90;99.90
2106;DHT22;1059;52.548;13.408;2023-02-08T03:25:30;-0.90;99.90
2106;DHT22;1059;52.548;13.408;2023-02-08T03:28:03;-0.90;99.90
2106;DHT22;1059;52.548;13.408;2023-02-08T03:30:36;-1.00;99.90
2106;DHT22;1059;52.548;13.408;2023-02-08T03:33:13;-1.00;99.90
2106;DHT22;1059;52.548;13.408;2023-02-08T03:35:46;-1.10;99.90
2106;DHT22;1059;52.548;13.408;2023-02-08T03:38:18;-1.10;99.90
2106;DHT22;1059;52.548;13.408;2023-02-08T03:40:51;-1.10;99.90
2106;DHT22;1059;52.548;13.408;2023-02-08T03:43:22;-1.10;99.90
2106;DHT22;1059;52.548;13.408;2023-02-08T03:45:54;-1.10;99.90
2106;DHT22;1059;52.548;13.408;2023-02-08T03:48:24;-1.10;99.90
2106;DHT22;1059;52.548;13.408;2023-02-08T03:50:56;-1.10;99.90
2106;DHT22;1059;52.548;13.408;2023-02-08T03:53:25;-1.10;99.90
2106;DHT22;1059;52.548;13.408;2023-02-08T03:55:58;-1.10;99.90
2106;DHT22;1059;52.548;13.408;2023-02-08T03:58:31;-1.10;99.90
2106;DHT22;1059;52.548;13.408;2023-02-08T04:01:04;-1.00;99.90
2106;DHT22;1059;52.548;13.408;2023-02-08T04:03:34;-1.00;99.90
2106;DHT22;1059;52.548;13.408;2023-02-08T04:06:03;-1.00;99.90
2106;DHT22;1059;52.548;13.408;2023-02-08T04:08:30;-1.00;99.90
2106;DHT22;1059;52.548;13.408;2023-02-08T04:10:57;-1.00;99.90
2106;DHT22;1059;52.548;13.408;2023-02-08T04:13:24;-1.00;99.90
2106;DHT22;1059;52.548;13.408;2023-02-08T04:15:51;-1.00;99.90
2106;DHT22;1059;52.548;13.408;2023-02-08T04:18:18;-1.00;99.90
2106;DHT22;1059;52.548;13.408;2023-02-08T04:20:45;-1.00;99.90
2106;DHT22;1059;52.548;13.408;2023-02-08T04:23:13;-0.90;99.90
2106;DHT22;1059;52.548;13.408;2023-02-08T04:25:40;-0.90;99.90
2106;DHT22;1059;52.548;13.408;2023-02-08T04:28:07;-0.90;99.90
2106;DHT22;1059;52.548;13.408;2023-02-08T04:30:34;-0.90;99.90
2106;DHT22;1059;52.548;13.408;2023-02-08T04:33:00;-0.90;99.90
2106;DHT22;1059;52.548;13.408;2023-02-08T04:35:28;-0.90;99.90
2106;DHT22;1059;52.548;13.408;2023-02-08T04:37:55;-0.90;99.90
2106;DHT22;1059;52.548;13.408;2023-02-08T04:40:23;-0.90;99.90
2106;DHT22;1059;52.548;13.408;2023-02-08T04:42:50;-0.90;99.90
2106;DHT22;1059;52.548;13.408;2023-02-08T04:45:17;-0.90;99.90
2106;DHT22;1059;52.548;13.408;2023-02-08T04:47:44;-0.90;99.90
2106;DHT22;1059;52.548;13.408;2023-02-08T04:50:11;-0.90;99.90
2106;DHT22;1059;52.548;13.408;2023-02-08T04:52:37;-0.90;99.90
2106;DHT22;1059;52.548;13.408;2023-02-08T04:55:05;-0.90;99.90
2106;DHT22;1059;52.548;13.408;2023-02-08T04:57:33;-0.90;99.90
2106;DHT22;1059;52.548;13.408;2023-02-08T05:00:00;-0.90;99.90
2106;DHT22;1059;52.548;13.408;2023-02-08T05:02:27;-0.90;99.90
2106;DHT22;1059;52.548;13.408;2023-02-08T05:04:54;-1.00;99.90
2106;DHT22;1059;52.548;13.408;2023-02-08T05:07:21;-1.00;99.90
2106;DHT22;1059;52.548;13.408;2023-02-08T05:09:48;-1.00;99.90
2106;DHT22;1059;52.548;13.408;2023-02-08T05:12:15;-1.00;99.90
2106;DHT22;1059;52.548;13.408;2023-02-08T05:14:44;-1.00;99.90
2106;DHT22;1059;52.548;13.408;2023-02-08T05:17:10;-1.00;99.90
2106;DHT22;1059;52.548;13.408;2023-02-08T05:19:37;-0.90;99.90
2106;DHT22;1059;52.548;13.408;2023-02-08T05:22:04;-1.00;99.90
2106;DHT22;1059;52.548;13.408;2023-02-08T05:24:31;-1.00;99.90
2106;DHT22;1059;52.548;13.408;2023-02-08T05:26:58;-1.00;99.90
2106;DHT22;1059;52.548;13.408;2023-02-08T05:29:25;-1.00;99.90
2106;DHT22;1059;52.548;13.408;2023-02-08T05:31:53;-1.00;99.90
2106;DHT22;1059;52.548;13.408;2023-02-08T05:34:20;-1.00;99.90
2106;DHT22;1059;52.548;13.408;2023-02-08T05:36:47;-1.10;99.90
2106;DHT22;1059;52.548;13.408;2023-02-08T05:39:13;-1.10;99.90
2106;DHT22;1059;52.548;13.408;2023-02-08T05:41:40;-1.10;99.90
2106;DHT22;1059;52.548;13.408;2023-02-08T05:44:07;-1.10;99.90
2106;DHT22;1059;52.548;13.408;2023-02-08T05:46:34;-1.20;99.90
2106;DHT22;1059;52.548;13.408;2023-02-08T05:49:02;-1.20;99.90
2106;DHT22;1059;52.548;13.408;2023-02-08T05:51:29;-1.30;99.90
2106;DHT22;1059;52.548;13.408;2023-02-08T05:53:56;-1.40;99.90
2106;DHT22;1059;52.548;13.408;2023-02-08T05:56:23;-1.40;99.90
2106;DHT22;1059;52.548;13.408;2023-02-08T05:58:50;-1.50;99.90
2106;DHT22;1059;52.548;13.408;2023-02-08T06:01:17;-1.50;99.90
2106;DHT22;1059;52.548;13.408;2023-02-08T06:03:43;-1.50;99.90
2106;DHT22;1059;52.548;13.408;2023-02-08T06:06:12;-1.50;99.90
2106;DHT22;1059;52.548;13.408;2023-02-08T06:08:39;-1.60;99.90
2106;DHT22;1059;52.548;13.408;2023-02-08T06:11:06;-1.60;99.90
2106;DHT22;1059;52.548;13.408;2023-02-08T06:13:33;-1.60;99.90
2106;DHT22;1059;52.548;13.408;2023-02-08T06:16:00;-1.60;99.90
2106;DHT22;1059;52.548;13.408;2023-02-08T06:18:26;-1.60;99.90
2106;DHT22;1059;52.548;13.408;2023-02-08T06:20:54;-1.60;99.90
2106;DHT22;1059;52.548;13.408;2023-02-08T06:23:22;-1.60;99.90
2106;DHT22;1059;52.548;13.408;2023-02-08T06:25:49;-1.50;99.90
2106;DHT22;1059;52.548;13.408;2023-02-08T06:28:17;-1.50;99.90
2106;DHT22;1059;52.548;13.408;2023-02-08T06:30:44;-1.50;99.90
2106;DHT22;1059;52.548;13.408;2023-02-08T06:33:11;-1.60;99.90
2106;DHT22;1059;52.548;13.408;2023-02-08T06:35:38;-1.60;99.90
2106;DHT22;1059;52.548;13.408;2023-02-08T06:38:05;-1.60;99.90
2106;DHT22;1059;52.548;13.408;2023-02-08T06:40:33;-1.60;99.90
2106;DHT22;1059;52.548;13.408;2023-02-08T06:43:00;-1.60;99.90
2106;DHT22;1059;52.548;13.408;2023-02-08T06:45:26;-1.60;99.90
2106;DHT22;1059;52.548;13.408;2023-02-08T06:47:53;-1.60;99.90
2106;DHT22;1059;52.548;13.408;2023-02-08T06:50:20;-1.50;99.90
2106;DHT22;1059;52.548;13.408;2023-02-08T06:52:47;-1.50;99.90
2106;DHT22;1059;52.548;13.408;2023-02-08T06:55:14;-1.60;99.90
2106;DHT22;1059;52.548;13.408;2023-02-08T06:57:42;-1.60;99.90
2106;DHT22;1059;52.548;13.408;2023-02-08T07:00:10;-1.60;99.90
2106;DHT22;1059;52.548;13.408;2023-02-08T07:02:37;-1.60;99.90
2106;DHT22;1059;52.548;13.408;2023-02-08T07:05:04;-1.60;99.90
2106;DHT22;1059;52.548;13.408;2023-02-08T07:07:31;-1.50;99.90
2106;DHT22;1059;52.548;13.408;2023-02-08T07:09:58;-1.50;99.90
2106;DHT22;1059;52.548;13.408;2023-02-08T07:12:25;-1.50;99.90
2106;DHT22;1059;52.548;13.408;2023-02-08T07:14:53;-1.50;99.90
2106;DHT22;1059;52.548;13.408;2023-02-08T07:17:20;-1.60;99.90
2106;DHT22;1059;52.548;13.408;2023-02-08T07:19:47;-1.60;99.90
2106;DHT22;1059;52.548;13.408;2023-02-08T07:22:14;-1.60;99.90
2106;DHT22;1059;52.548;13.408;2023-02-08T07:24:41;-1.70;99.90
2106;DHT22;1059;52.548;13.408;2023-02-08T07:27:09;-1.60;99.90
2106;DHT22;1059;52.548;13.408;2023-02-08T07:29:37;-1.60;99.90
2106;DHT22;1059;52.548;13.408;2023-02-08T07:32:06;-1.60;99.90
2106;DHT22;1059;52.548;13.408;2023-02-08T07:34:36;-1.60;99.90
2106;DHT22;1059;52.548;13.408;2023-02-08T07:37:05;-1.60;99.90
2106;DHT22;1059;52.548;13.408;2023-02-08T07:39:32;-1.70;99.90
2106;DHT22;1059;52.548;13.408;2023-02-08T07:41:59;-1.70;99.90
2106;DHT22;1059;52.548;13.408;2023-02-08T07:44:25;-1.70;99.90
2106;DHT22;1059;52.548;13.408;2023-02-08T07:46:52;-1.70;99.90
2106;DHT22;1059;52.548;13.408;2023-02-08T07:49:21;-1.60;99.90
2106;DHT22;1059;52.548;13.408;2023-02-08T07:51:47;-1.60;99.90
2106;DHT22;1059;52.548;13.408;2023-02-08T07:54:14;-1.50;99.90
2106;DHT22;1059;52.548;13.408;2023-02-08T07:56:41;-1.40;99.90
2106;DHT22;1059;52.548;13.408;2023-02-08T07:59:08;-1.40;99.90
2106;DHT22;1059;52.548;13.408;2023-02-08T08:01:35;-1.40;99.90
2106;DHT22;1059;52.548;13.408;2023-02-08T08:04:02;-1.40;99.90
2106;DHT22;1059;52.548;13.408;2023-02-08T08:06:30;-1.30;99.90
2106;DHT22;1059;52.548;13.408;2023-02-08T08:08:57;-1.30;99.90
2106;DHT22;1059;52.548;13.408;2023-02-08T08:11:24;-1.30;99.90
2106;DHT22;1059;52.548;13.408;2023-02-08T08:13:51;-1.20;99.90
2106;DHT22;1059;52.548;13.408;2023-02-08T08:16:18;-1.20;99.90
2106;DHT22;1059;52.548;13.408;2023-02-08T08:18:45;-1.20;99.90
2106;DHT22;1059;52.548;13.408;2023-02-08T08:21:12;-1.10;99.90
2106;DHT22;1059;52.548;13.408;2023-02-08T08:23:42;-1.00;99.90
2106;DHT22;1059;52.548;13.408;2023-02-08T08:26:11;-0.90;99.90
2106;DHT22;1059;52.548;13.408;2023-02-08T08:28:39;-0.90;99.90
2106;DHT22;1059;52.548;13.408;2023-02-08T08:31:11;-0.90;99.90
2106;DHT22;1059;52.548;13.408;2023-02-08T08:33:38;-0.90;99.90
2106;DHT22;1059;52.548;13.408;2023-02-08T08:36:06;-0.90;99.90
2106;DHT22;1059;52.548;13.408;2023-02-08T08:38:33;-0.90;99.90
2106;DHT22;1059;52.548;13.408;2023-02-08T08:41:06;-0.80;99.90
2106;DHT22;1059;52.548;13.408;2023-02-08T08:43:33;-0.70;99.90
2106;DHT22;1059;52.548;13.408;2023-02-08T08:45:59;-0.60;99.90
2106;DHT22;1059;52.548;13.408;2023-02-08T08:48:27;-0.60;99.90
2106;DHT22;1059;52.548;13.408;2023-02-08T08:50:54;-0.50;99.90
2106;DHT22;1059;52.548;13.408;2023-02-08T08:53:20;-0.50;99.90
2106;DHT22;1059;52.548;13.408;2023-02-08T08:55:47;-0.50;99.90
2106;DHT22;1059;52.548;13.408;2023-02-08T08:58:16;-0.50;99.90
2106;DHT22;1059;52.548;13.408;2023-02-08T09:00:43;-0.40;99.90
2106;DHT22;1059;52.548;13.408;2023-02-08T09:03:10;-0.40;99.90
2106;DHT22;1059;52.548;13.408;2023-02-08T09:05:36;-0.40;99.90
2106;DHT22;1059;52.548;13.408;2023-02-08T09:08:04;-0.40;99.90
2106;DHT22;1059;52.548;13.408;2023-02-08T09:10:30;-0.40;99.90
2106;DHT22;1059;52.548;13.408;2023-02-08T09:12:57;-0.40;99.90
2106;DHT22;1059;52.548;13.408;2023-02-08T09:15:26;-0.30;99.90
2106;DHT22;1059;52.548;13.408;2023-02-08T09:17:53;-0.30;99.90
2106;DHT22;1059;52.548;13.408;2023-02-08T09:20:19;-0.30;99.90
2106;DHT22;1059;52.548;13.408;2023-02-08T09:22:46;-0.30;99.90
2106;DHT22;1059;52.548;13.408;2023-02-08T09:25:13;-0.30;99.90
2106;DHT22;1059;52.548;13.408;2023-02-08T09:27:40;-0.30;99.90
2106;DHT22;1059;52.548;13.408;2023-02-08T09:30:09;-0.20;99.90
2106;DHT22;1059;52.548;13.408;2023-02-08T09:32:37;-0.20;99.90
2106;DHT22;1059;52.548;13.408;2023-02-08T09:35:05;-0.10;99.90
2106;DHT22;1059;52.548;13.408;2023-02-08T09:37:32;0.00;99.90
2106;DHT22;1059;52.548;13.408;2023-02-08T09:39:59;0.10;99.90
2106;DHT22;1059;52.548;13.408;2023-02-08T09:42:31;0.20;99.90
2106;DHT22;1059;52.548;13.408;2023-02-08T09:47:57;0.40;99.90
2106;DHT22;1059;52.548;13.408;2023-02-08T09:50:30;0.50;99.90
2106;DHT22;1059;52.548;13.408;2023-02-08T09:53:03;0.50;99.90
2106;DHT22;1059;52.548;13.408;2023-02-08T09:55:35;0.50;99.90
2106;DHT22;1059;52.548;13.408;2023-02-08T09:58:16;0.50;99.90
2106;DHT22;1059;52.548;13.408;2023-02-08T10:00:46;0.50;99.90
2106;DHT22;1059;52.548;13.408;2023-02-08T10:03:26;0.60;99.90
2106;DHT22;1059;52.548;13.408;2023-02-08T10:05:55;0.70;99.90
2106;DHT22;1059;52.548;13.408;2023-02-08T10:08:22;0.70;99.90
2106;DHT22;1059;52.548;13.408;2023-02-08T10:10:52;0.70;99.90
2106;DHT22;1059;52.548;13.408;2023-02-08T10:13:44;0.70;99.90
2106;DHT22;1059;52.548;13.408;2023-02-08T10:16:26;0.70;99.90
2106;DHT22;1059;52.548;13.408;2023-02-08T10:19:03;0.80;99.90
2106;DHT22;1059;52.548;13.408;2023-02-08T10:21:44;0.90;99.90
2106;DHT22;1059;52.548;13.408;2023-02-08T10:24:26;0.90;99.90
2106;DHT22;1059;52.548;13.408;2023-02-08T10:27:05;0.80;99.90
2106;DHT22;1059;52.548;13.408;2023-02-08T10:29:54;0.90;99.90
2106;DHT22;1059;52.548;13.408;2023-02-08T10:32:34;0.80;99.90
2106;DHT22;1059;52.548;13.408;2023-02-08T10:35:10;0.90;99.90
2106;DHT22;1059;52.548;13.408;2023-02-08T10:37:39;0.90;99.90
2106;DHT22;1059;52.548;13.408;2023-02-08T10:40:18;1.00;99.90
2106;DHT22;1059;52.548;13.408;2023-02-08T10:42:57;0.90;99.90
2106;DHT22;1059;52.548;13.408;2023-02-08T10:45:28;0.90;99.90
2106;DHT22;1059;52.548;13.408;2023-02-08T10:48:00;0.80;99.90
2106;DHT22;1059;52.548;13.408;2023-02-08T10:50:34;0.90;99.90
2106;DHT22;1059;52.548;13.408;2023-02-08T10:53:01;1.00;99.90
2106;DHT22;1059;52.548;13.408;2023-02-08T10:55:30;1.20;99.90
2106;DHT22;1059;52.548;13.408;2023-02-08T10:57:59;1.30;99.90
2106;DHT22;1059;52.548;13.408;2023-02-08T11:00:30;1.30;99.90
2106;DHT22;1059;52.548;13.408;2023-02-08T11:03:00;1.40;99.90
2106;DHT22;1059;52.548;13.408;2023-02-08T11:05:35;1.40;99.90
2106;DHT22;1059;52.548;13.408;2023-02-08T11:08:07;1.60;99.90
2106;DHT22;1059;52.548;13.408;2023-02-08T11:10:35;1.70;99.90
2106;DHT22;1059;52.548;13.408;2023-02-08T11:13:05;1.80;99.90
2106;DHT22;1059;52.548;13.408;2023-02-08T11:15:37;1.80;99.90
2106;DHT22;1059;52.548;13.408;2023-02-08T11:18:06;1.90;99.90
2106;DHT22;1059;52.548;13.408;2023-02-08T11:20:40;1.90;99.90
2106;DHT22;1059;52.548;13.408;2023-02-08T11:23:19;2.00;99.90
2106;DHT22;1059;52.548;13.408;2023-02-08T11:25:48;2.00;99.90
2106;DHT22;1059;52.548;13.408;2023-02-08T11:28:27;2.10;99.90
2106;DHT22;1059;52.548;13.408;2023-02-08T11:30:57;2.10;99.90
2106;DHT22;1059;52.548;13.408;2023-02-08T11:33:24;2.10;99.90
2106;DHT22;1059;52.548;13.408;2023-02-08T11:36:03;2.10;99.90
2106;DHT22;1059;52.548;13.408;2023-02-08T11:38:33;2.00;99.90
2106;DHT22;1059;52.548;13.408;2023-02-08T11:41:02;1.90;99.90
2106;DHT22;1059;52.548;13.408;2023-02-08T11:43:31;1.90;99.90
2106;DHT22;1059;52.548;13.408;2023-02-08T11:46:00;2.00;99.90
2106;DHT22;1059;52.548;13.408;2023-02-08T11:48:36;2.00;99.90
2106;DHT22;1059;52.548;13.408;2023-02-08T11:51:08;2.10;99.90
2106;DHT22;1059;52.548;13.408;2023-02-08T11:53:39;2.20;99.90
2106;DHT22;1059;52.548;13.408;2023-02-08T11:56:15;2.30;99.90
2106;DHT22;1059;52.548;13.408;2023-02-08T11:58:55;2.40;99.90
2106;DHT22;1059;52.548;13.408;2023-02-08T12:01:26;2.60;99.90
2106;DHT22;1059;52.548;13.408;2023-02-08T12:03:55;2.80;99.90
2106;DHT22;1059;52.548;13.408;2023-02-08T12:06:43;2.90;99.90
2106;DHT22;1059;52.548;13.408;2023-02-08T12:09:21;2.80;99.90
2106;DHT22;1059;52.548;13.408;2023-02-08T12:11:58;2.70;99.90
2106;DHT22;1059;52.548;13.408;2023-02-08T12:14:44;2.80;99.90
2106;DHT22;1059;52.548;13.408;2023-02-08T12:17:45;3.40;99.90
2106;DHT22;1059;52.548;13.408;2023-02-08T12:20:34;4.30;99.90
2106;DHT22;1059;52.548;13.408;2023-02-08T12:23:23;5.40;99.90
2106;DHT22;1059;52.548;13.408;2023-02-08T12:26:01;6.20;99.90
2106;DHT22;1059;52.548;13.408;2023-02-08T12:28:41;6.30;99.90
2106;DHT22;1059;52.548;13.408;2023-02-08T12:31:15;7.00;99.90
2106;DHT22;1059;52.548;13.408;2023-02-08T12:33:51;7.70;95.70
2106;DHT22;1059;52.548;13.408;2023-02-08T12:36:46;8.10;92.40
2106;DHT22;1059;52.548;13.408;2023-02-08T12:39:41;8.20;85.20
2106;DHT22;1059;52.548;13.408;2023-02-08T12:42:40;8.70;82.70
2106;DHT22;1059;52.548;13.408;2023-02-08T12:45:39;8.80;78.30
2106;DHT22;1059;52.548;13.408;2023-02-08T12:48:24;9.50;73.00
2106;DHT22;1059;52.548;13.408;2023-02-08T12:50:59;10.10;65.00
2106;DHT22;1059;52.548;13.408;2023-02-08T12:53:32;10.10;59.10
2106;DHT22;1059;52.548;13.408;2023-02-08T12:56:07;10.20;58.50
2106;DHT22;1059;52.548;13.408;2023-02-08T12:58:41;10.70;59.50
2106;DHT22;1059;52.548;13.408;2023-02-08T13:01:13;10.90;56.00
2106;DHT22;1059;52.548;13.408;2023-02-08T13:03:46;10.80;53.80
2106;DHT22;1059;52.548;13.408;2023-02-08T13:06:17;10.60;52.70
2106;DHT22;1059;52.548;13.408;2023-02-08T13:08:50;10.30;51.10
2106;DHT22;1059;52.548;13.408;2023-02-08T13:11:26;10.00;53.40
2106;DHT22;1059;52.548;13.408;2023-02-08T13:13:57;10.60;54.10
2106;DHT22;1059;52.548;13.408;2023-02-08T13:16:31;11.40;54.40
2106;DHT22;1059;52.548;13.408;2023-02-08T13:19:11;12.20;50.00
2106;DHT22;1059;52.548;13.408;2023-02-08T13:21:43;12.60;46.60
2106;DHT22;1059;52.548;13.408;2023-02-08T13:24:21;13.20;47.00
2106;DHT22;1059;52.548;13.408;2023-02-08T13:26:51;13.60;42.80
2106;DHT22;1059;52.548;13.408;2023-02-08T13:29:19;13.10;41.50
2106;DHT22;1059;52.548;13.408;2023-02-08T13:31:51;13.50;43.10
2106;DHT22;1059;52.548;13.408;2023-02-08T13:34:28;13.60;41.70
2106;DHT22;1059;52.548;13.408;2023-02-08T13:36:59;13.50;40.40
2106;DHT22;1059;52.548;13.408;2023-02-08T13:39:36;12.70;38.00
2106;DHT22;1059;52.548;13.408;2023-02-08T13:42:17;11.90;38.60
2106;DHT22;1059;52.548;13.408;2023-02-08T13:44:48;10.70;40.10
2106;DHT22;1059;52.548;13.408;2023-02-08T13:47:23;10.40;41.70
2106;DHT22;1059;52.548;13.408;2023-02-08T13:49:56;10.10;42.50
2106;DHT22;1059;52.548;13.408;2023-02-08T13:52:50;10.20;42.80
2106;DHT22;1059;52.548;13.408;2023-02-08T13:55:50;10.50;42.60
2106;DHT22;1059;52.548;13.408;2023-02-08T14:01:32;10.60;44.80
2106;DHT22;1059;52.548;13.408;2023-02-08T14:04:28;11.40;41.50
2106;DHT22;1059;52.548;13.408;2023-02-08T14:07:00;11.90;42.90
2106;DHT22;1059;52.548;13.408;2023-02-08T14:09:40;12.40;39.50
2106;DHT22;1059;52.548;13.408;2023-02-08T14:12:14;12.80;41.30
2106;DHT22;1059;52.548;13.408;2023-02-08T14:14:42;13.50;39.70
2106;DHT22;1059;52.548;13.408;2023-02-08T14:17:31;13.80;38.70
2106;DHT22;1059;52.548;13.408;2023-02-08T14:20:00;13.70;36.50
2106;DHT22;1059;52.548;13.408;2023-02-08T14:22:35;13.50;37.00
2106;DHT22;1059;52.548;13.408;2023-02-08T14:25:05;13.60;35.70
2106;DHT22;1059;52.548;13.408;2023-02-08T14:27:37;13.20;36.30
2106;DHT22;1059;52.548;13.408;2023-02-08T14:30:07;12.80;36.50
2106;DHT22;1059;52.548;13.408;2023-02-08T14:32:48;13.00;37.10
2106;DHT22;1059;52.548;13.408;2023-02-08T14:35:19;12.80;34.30
2106;DHT22;1059;52.548;13.408;2023-02-08T14:37:48;12.00;35.30
2106;DHT22;1059;52.548;13.408;2023-02-08T14:40:46;11.70;37.00
2106;DHT22;1059;52.548;13.408;2023-02-08T14:43:31;12.30;37.10
2106;DHT22;1059;52.548;13.408;2023-02-08T14:49:00;12.10;35.40
2106;DHT22;1059;52.548;13.408;2023-02-08T14:51:32;11.50;35.90
2106;DHT22;1059;52.548;13.408;2023-02-08T14:54:05;11.30;36.80
2106;DHT22;1059;52.548;13.408;2023-02-08T14:56:46;11.20;37.70
2106;DHT22;1059;52.548;13.408;2023-02-08T14:59:18;11.30;37.90
2106;DHT22;1059;52.548;13.408;2023-02-08T15:01:49;11.20;37.50
2106;DHT22;1059;52.548;13.408;2023-02-08T15:04:19;10.70;38.10
2106;DHT22;1059;52.548;13.408;2023-02-08T15:07:14;10.70;38.80
2106;DHT22;1059;52.548;13.408;2023-02-08T15:09:45;10.70;39.90
2106;DHT22;1059;52.548;13.408;2023-02-08T15:12:19;10.80;38.70
2106;DHT22;1059;52.548;13.408;2023-02-08T15:14:48;10.90;40.00
2106;DHT22;1059;52.548;13.408;2023-02-08T15:17:21;10.50;37.90
2106;DHT22;1059;52.548;13.408;2023-02-08T15:19:50;10.10;39.00
2106;DHT22;1059;52.548;13.408;2023-02-08T15:22:31;9.60;40.70
2106;DHT22;1059;52.548;13.408;2023-02-08T15:25:00;9.40;40.60
2106;DHT22;1059;52.548;13.408;2023-02-08T15:27:31;8.90;42.20
2106;DHT22;1059;52.548;13.408;2023-02-08T15:29:59;9.00;42.60
2106;DHT22;1059;52.548;13.408;2023-02-08T15:32:27;9.00;42.30
2106;DHT22;1059;52.548;13.408;2023-02-08T15:34:58;8.40;41.90
2106;DHT22;1059;52.548;13.408;2023-02-08T15:37:26;7.80;42.90
2106;DHT22;1059;52.548;13.408;2023-02-08T15:39:57;6.90;44.20
2106;DHT22;1059;52.548;13.408;2023-02-08T15:42:26;6.30;46.20
2106;DHT22;1059;52.548;13.408;2023-02-08T15:44:55;5.70;48.80
2106;DHT22;1059;52.548;13.408;2023-02-08T15:47:24;5.40;51.20
2106;DHT22;1059;52.548;13.408;2023-02-08T15:49:53;5.10;53.90
2106;DHT22;1059;52.548;13.408;2023-02-08T15:52:23;4.80;56.50
2106;DHT22;1059;52.548;13.408;2023-02-08T15:54:51;4.50;59.90
2106;DHT22;1059;52.548;13.408;2023-02-08T15:57:24;4.30;64.10
2106;DHT22;1059;52.548;13.408;2023-02-08T15:59:53;4.10;68.50
2106;DHT22;1059;52.548;13.408;2023-02-08T16:02:25;4.00;71.90
2106;DHT22;1059;52.548;13.408;2023-02-08T16:04:52;3.90;75.70
2106;DHT22;1059;52.548;13.408;2023-02-08T16:07:26;3.80;79.30
2106;DHT22;1059;52.548;13.408;2023-02-08T16:09:54;3.70;84.20
2106;DHT22;1059;52.548;13.408;2023-02-08T16:12:23;3.60;88.40
2106;DHT22;1059;52.548;13.408;2023-02-08T16:14:51;3.40;91.10
2106;DHT22;1059;52.548;13.408;2023-02-08T16:17:41;3.40;93.50
2106;DHT22;1059;52.548;13.408;2023-02-08T16:20:27;3.30;95.90
2106;DHT22;1059;52.548;13.408;2023-02-08T16:22:58;3.20;98.10
2106;DHT22;1059;52.548;13.408;2023-02-08T16:25:34;3.10;99.90
2106;DHT22;1059;52.548;13.408;2023-02-08T16:28:02;2.90;99.90
2106;DHT22;1059;52.548;13.408;2023-02-08T16:30:30;2.80;99.90
2106;DHT22;1059;52.548;13.408;2023-02-08T16:33:03;2.60;99.90